createdAt,value
2018-01-01T00:00:16.731Z,7.5
2018-01-01T00:01:18.121Z,7.6
2018-01-01T00:02:19.503Z,7.5
2018-01-01T00:03:20.885Z,7.6
2018-01-01T00:04:22.266Z,7.6
2018-01-01T00:05:23.649Z,7.6
2018-01-01T00:06:25.034Z,7.6
2018-01-01T00:07:26.419Z,7.6
2018-01-01T00:08:27.803Z,7.4
2018-01-01T00:09:29.187Z,7.6
2018-01-01T00:10:30.570Z,7.5
2018-01-01T00:11:31.968Z,7.5
2018-01-01T00:12:33.349Z,7.5
2018-01-01T00:13:34.744Z,7.5
2018-01-01T00:14:36.128Z,7.5
2018-01-01T00:15:37.514Z,7.5
2018-01-01T00:16:38.897Z,7.6
2018-01-01T00:17:40.282Z,7.5
2018-01-01T00:18:41.663Z,7.5
2018-01-01T00:19:43.045Z,7.5
2018-01-01T00:20:44.432Z,7.6
2018-01-01T00:21:45.819Z,7.7
2018-01-01T00:22:47.204Z,7.7
2018-01-01T00:23:48.585Z,7.7
2018-01-01T00:24:49.966Z,7.9
2018-01-01T00:25:51.348Z,7.9
2018-01-01T00:26:52.729Z,7.9
2018-01-01T00:27:54.115Z,7.8
2018-01-01T00:28:55.509Z,7.9
2018-01-01T00:29:56.880Z,8.0
2018-01-01T00:30:58.261Z,8.0
2018-01-01T00:31:59.643Z,7.9
2018-01-01T00:33:01.023Z,7.9
2018-01-01T00:34:02.407Z,7.9
2018-01-01T00:35:03.792Z,7.9
2018-01-01T00:36:05.173Z,8.0
2018-01-01T00:37:06.559Z,8.0
2018-01-01T00:38:07.945Z,8.1
2018-01-01T00:39:09.325Z,8.2
2018-01-01T00:40:10.711Z,8.2
2018-01-01T00:41:12.092Z,8.3
2018-01-01T00:42:13.477Z,8.3
2018-01-01T00:43:14.859Z,8.2
2018-01-01T00:44:16.243Z,8.3
2018-01-01T00:45:17.625Z,8.2
2018-01-01T00:46:19.006Z,8.2
2018-01-01T00:47:20.391Z,8.2
2018-01-01T00:48:21.769Z,8.2
2018-01-01T00:49:23.158Z,8.2
2018-01-01T00:50:24.534Z,8.2
2018-01-01T00:51:25.920Z,8.2
2018-01-01T00:52:27.331Z,8.2
2018-01-01T00:53:28.690Z,8.1
2018-01-01T00:54:30.073Z,8.2
2018-01-01T00:55:31.455Z,8.1
2018-01-01T00:56:32.840Z,8.0
2018-01-01T00:57:34.226Z,7.7
2018-01-01T00:58:35.610Z,7.4
2018-01-01T00:59:36.993Z,7.2
2018-01-01T01:00:38.375Z,7.2
2018-01-01T01:01:39.756Z,7.1
2018-01-01T01:02:41.138Z,7.1
2018-01-01T01:03:42.546Z,7.1
2018-01-01T01:04:44.010Z,7.0
2018-01-01T01:05:45.395Z,7.0
2018-01-01T01:06:46.782Z,7.0
2018-01-01T01:07:48.164Z,7.0
2018-01-01T01:08:49.548Z,7.0
2018-01-01T01:09:50.928Z,7.1
2018-01-01T01:10:52.313Z,7.1
2018-01-01T01:11:53.697Z,7.1
2018-01-01T01:12:55.083Z,7.0
2018-01-01T01:13:56.469Z,7.1
2018-01-01T01:14:57.851Z,7.1
2018-01-01T01:15:59.236Z,7.1
2018-01-01T01:17:00.618Z,7.1
2018-01-01T01:18:02.000Z,7.1
2018-01-01T01:19:03.385Z,7.1
2018-01-01T01:20:04.769Z,7.1
2018-01-01T01:21:06.152Z,7.1
2018-01-01T01:22:07.532Z,7.1
2018-01-01T01:23:08.912Z,7.2
2018-01-01T01:24:10.293Z,7.1
2018-01-01T01:25:11.676Z,7.3
2018-01-01T01:26:13.062Z,7.1
2018-01-01T01:27:14.449Z,7.1
2018-01-01T01:28:15.831Z,7.1
2018-01-01T01:29:17.214Z,7.1
2018-01-01T01:30:18.598Z,7.2
2018-01-01T01:31:19.980Z,7.2
2018-01-01T01:32:21.364Z,7.2
2018-01-01T01:33:22.748Z,7.3
2018-01-01T01:34:24.138Z,7.3
2018-01-01T01:35:25.521Z,7.3
2018-01-01T01:36:26.901Z,7.3
2018-01-01T01:37:28.284Z,7.5
2018-01-01T01:38:29.663Z,7.6
2018-01-01T01:39:31.044Z,7.6
2018-01-01T01:40:32.427Z,7.7
2018-01-01T01:41:33.811Z,7.7
2018-01-01T01:42:35.193Z,7.7
2018-01-01T01:43:36.576Z,7.7
2018-01-01T01:44:37.957Z,7.9
2018-01-01T01:45:39.340Z,7.9
2018-01-01T01:46:40.718Z,7.8
2018-01-01T01:47:42.102Z,7.9
2018-01-01T01:48:43.487Z,7.8
2018-01-01T01:49:44.872Z,7.9
2018-01-01T01:50:46.252Z,7.8
2018-01-01T01:51:47.638Z,8.0
2018-01-01T01:52:49.017Z,8.0
2018-01-01T01:53:50.397Z,8.0
2018-01-01T01:54:51.782Z,8.0
2018-01-01T01:55:53.184Z,8.0
2018-01-01T01:56:54.572Z,8.0
2018-01-01T01:57:55.951Z,8.0
2018-01-01T01:58:57.331Z,7.8
2018-01-01T01:59:58.713Z,7.8
2018-01-01T02:01:00.100Z,8.0
2018-01-01T02:02:01.475Z,8.0
2018-01-01T02:03:02.859Z,8.0
2018-01-01T02:04:04.243Z,8.0
2018-01-01T02:05:05.622Z,7.9
2018-01-01T02:06:07.004Z,8.0
2018-01-01T02:07:08.386Z,8.0
2018-01-01T02:08:09.769Z,8.1
2018-01-01T02:09:11.153Z,8.2
2018-01-01T02:10:12.535Z,8.2
2018-01-01T02:11:13.920Z,8.2
2018-01-01T02:12:15.305Z,8.2
2018-01-01T02:13:16.687Z,8.2
2018-01-01T02:14:18.067Z,8.2
2018-01-01T02:15:19.447Z,8.3
2018-01-01T02:16:20.829Z,8.2
2018-01-01T02:17:22.212Z,8.1
2018-01-01T02:18:23.597Z,8.2
2018-01-01T02:19:24.977Z,8.2
2018-01-01T02:20:26.360Z,8.2
2018-01-01T02:21:27.743Z,8.2
2018-01-01T02:22:29.124Z,8.2
2018-01-01T02:23:30.507Z,8.3
2018-01-01T02:24:31.891Z,8.2
2018-01-01T02:25:33.280Z,8.2
2018-01-01T02:26:34.658Z,8.2
2018-01-01T02:27:36.042Z,8.4
2018-01-01T02:28:37.419Z,8.4
2018-01-01T02:29:38.802Z,8.3
2018-01-01T02:30:40.186Z,8.3
2018-01-01T02:31:41.570Z,8.4
2018-01-01T02:32:42.953Z,8.4
2018-01-01T02:33:44.337Z,8.4
2018-01-01T02:34:45.718Z,8.4
2018-01-01T02:35:47.100Z,8.4
2018-01-01T02:36:48.482Z,8.4
2018-01-01T02:37:49.866Z,8.4
2018-01-01T02:38:51.247Z,8.4
2018-01-01T02:39:52.634Z,8.3
2018-01-01T02:40:54.014Z,8.5
2018-01-01T02:41:55.395Z,8.4
2018-01-01T02:42:56.781Z,8.4
2018-01-01T02:43:58.161Z,8.3
2018-01-01T02:44:59.544Z,8.4
2018-01-01T02:46:00.928Z,8.3
2018-01-01T02:47:02.314Z,8.3
2018-01-01T02:48:03.765Z,8.3
2018-01-01T02:49:05.149Z,8.3
2018-01-01T02:50:06.530Z,8.3
2018-01-01T02:51:07.921Z,8.3
2018-01-01T02:52:09.306Z,8.2
2018-01-01T02:53:10.694Z,8.2
2018-01-01T02:54:12.076Z,8.3
2018-01-01T02:55:13.457Z,8.4
2018-01-01T02:56:14.841Z,8.3
2018-01-01T02:57:16.222Z,8.4
2018-01-01T02:58:17.607Z,8.3
2018-01-01T02:59:18.989Z,8.3
2018-01-01T03:00:20.372Z,8.4
2018-01-01T03:01:21.758Z,8.5
2018-01-01T03:02:23.140Z,8.4
2018-01-01T03:03:24.522Z,8.3
2018-01-01T03:04:25.903Z,8.4
2018-01-01T03:05:27.286Z,8.3
2018-01-01T03:06:28.671Z,8.4
2018-01-01T03:07:30.053Z,8.4
2018-01-01T03:08:31.435Z,8.5
2018-01-01T03:09:32.813Z,8.3
2018-01-01T03:10:34.194Z,8.3
2018-01-01T03:11:35.578Z,8.4
2018-01-01T03:12:36.963Z,8.5
2018-01-01T03:13:38.348Z,8.4
2018-01-01T03:14:39.728Z,8.4
2018-01-01T03:15:41.112Z,8.4
2018-01-01T03:16:42.497Z,8.4
2018-01-01T03:17:43.879Z,8.5
2018-01-01T03:18:45.265Z,8.4
2018-01-01T03:19:46.640Z,8.4
2018-01-01T03:20:48.023Z,8.4
2018-01-01T03:21:49.405Z,8.3
2018-01-01T03:22:50.792Z,8.2
2018-01-01T03:23:52.175Z,8.3
2018-01-01T03:24:53.554Z,8.3
2018-01-01T03:25:54.937Z,8.3
2018-01-01T03:26:56.321Z,8.2
2018-01-01T03:27:57.706Z,8.2
2018-01-01T03:28:59.092Z,8.2
2018-01-01T03:30:00.476Z,8.2
2018-01-01T03:31:01.859Z,8.2
2018-01-01T03:32:03.240Z,8.2
2018-01-01T03:33:04.623Z,8.0
2018-01-01T03:34:06.010Z,8.1
2018-01-01T03:35:07.395Z,8.0
2018-01-01T03:36:08.778Z,8.0
2018-01-01T03:37:10.163Z,8.0
2018-01-01T03:38:11.542Z,8.0
2018-01-01T03:39:12.967Z,7.9
2018-01-01T03:40:14.355Z,7.9
2018-01-01T03:41:15.738Z,8.0
2018-01-01T03:42:17.124Z,7.9
2018-01-01T03:43:18.511Z,7.8
2018-01-01T03:44:19.897Z,8.0
2018-01-01T03:45:21.277Z,7.9
2018-01-01T03:46:22.659Z,8.0
2018-01-01T03:47:24.041Z,7.8
2018-01-01T03:48:25.423Z,7.8
2018-01-01T03:49:26.805Z,7.9
2018-01-01T03:50:28.188Z,7.9
2018-01-01T03:51:29.576Z,7.8
2018-01-01T03:52:30.958Z,7.8
2018-01-01T03:53:32.341Z,7.7
2018-01-01T03:54:33.721Z,7.8
2018-01-01T03:55:35.106Z,7.8
2018-01-01T03:56:36.485Z,7.8
2018-01-01T03:57:37.873Z,7.7
2018-01-01T03:58:39.256Z,7.7
2018-01-01T03:59:40.636Z,7.6
2018-01-01T04:00:42.020Z,7.6
2018-01-01T04:01:43.400Z,7.7
2018-01-01T04:02:44.781Z,7.7
2018-01-01T04:03:46.163Z,7.7
2018-01-01T04:04:47.548Z,7.7
2018-01-01T04:05:48.933Z,7.7
2018-01-01T04:06:50.314Z,7.7
2018-01-01T04:07:51.696Z,7.7
2018-01-01T04:08:53.076Z,7.7
2018-01-01T04:09:54.460Z,7.6
2018-01-01T04:10:55.841Z,7.6
2018-01-01T04:11:57.225Z,7.6
2018-01-01T04:12:58.609Z,7.6
2018-01-01T04:13:59.990Z,7.5
2018-01-01T04:15:01.369Z,7.5
2018-01-01T04:16:02.752Z,7.6
2018-01-01T04:17:04.132Z,7.6
2018-01-01T04:18:05.515Z,7.5
2018-01-01T04:19:06.896Z,7.5
2018-01-01T04:20:08.281Z,7.4
2018-01-01T04:21:09.664Z,7.2
2018-01-01T04:22:11.055Z,7.0
2018-01-01T04:23:12.425Z,6.9
2018-01-01T04:24:13.805Z,6.8
2018-01-01T04:25:15.188Z,6.8
2018-01-01T04:26:16.575Z,6.9
2018-01-01T04:27:17.956Z,6.8
2018-01-01T04:28:19.340Z,6.8
2018-01-01T04:29:20.722Z,6.9
2018-01-01T04:30:22.100Z,6.9
2018-01-01T04:31:23.565Z,6.9
2018-01-01T04:32:24.957Z,7.0
2018-01-01T04:33:26.343Z,6.9
2018-01-01T04:34:27.727Z,6.9
2018-01-01T04:35:29.107Z,6.9
2018-01-01T04:36:30.487Z,7.0
2018-01-01T04:37:31.871Z,7.0
2018-01-01T04:38:33.254Z,7.0
2018-01-01T04:39:34.636Z,7.0
2018-01-01T04:40:36.017Z,7.2
2018-01-01T04:41:37.405Z,7.1
2018-01-01T04:42:38.785Z,7.2
2018-01-01T04:43:40.168Z,7.0
2018-01-01T04:44:41.547Z,7.2
2018-01-01T04:45:42.930Z,7.1
2018-01-01T04:46:44.310Z,7.2
2018-01-01T04:47:45.694Z,7.2
2018-01-01T04:48:47.077Z,7.2
2018-01-01T04:49:48.456Z,7.2
2018-01-01T04:50:49.841Z,7.2
2018-01-01T04:51:51.222Z,7.3
2018-01-01T04:52:52.605Z,7.3
2018-01-01T04:53:53.990Z,7.3
2018-01-01T04:54:55.370Z,7.4
2018-01-01T04:55:56.754Z,7.4
2018-01-01T04:56:58.136Z,7.3
2018-01-01T04:57:59.518Z,7.4
2018-01-01T04:59:00.899Z,7.4
2018-01-01T05:00:02.281Z,7.4
2018-01-01T05:01:03.664Z,7.4
2018-01-01T05:02:05.047Z,7.4
2018-01-01T05:03:06.431Z,7.4
2018-01-01T05:04:07.811Z,7.4
2018-01-01T05:05:09.191Z,7.4
2018-01-01T05:06:10.574Z,7.3
2018-01-01T05:07:11.958Z,7.3
2018-01-01T05:08:13.340Z,7.2
2018-01-01T05:09:14.721Z,7.3
2018-01-01T05:10:16.102Z,7.2
2018-01-01T05:11:17.484Z,7.2
2018-01-01T05:12:18.867Z,7.2
2018-01-01T05:13:20.247Z,7.2
2018-01-01T05:14:21.629Z,7.2
2018-01-01T05:15:23.013Z,7.2
2018-01-01T05:16:24.393Z,7.2
2018-01-01T05:17:25.781Z,7.2
2018-01-01T05:18:27.160Z,7.3
2018-01-01T05:19:28.543Z,7.2
2018-01-01T05:20:29.923Z,7.2
2018-01-01T05:21:31.302Z,7.3
2018-01-01T05:22:32.687Z,7.3
2018-01-01T05:23:34.075Z,7.1
2018-01-01T05:24:35.488Z,7.3
2018-01-01T05:25:36.868Z,7.2
2018-01-01T05:26:38.247Z,7.3
2018-01-01T05:27:39.628Z,7.4
2018-01-01T05:28:41.009Z,7.3
2018-01-01T05:29:42.401Z,7.4
2018-01-01T05:30:43.784Z,7.3
2018-01-01T05:31:45.169Z,7.4
2018-01-01T05:32:46.552Z,7.2
2018-01-01T05:33:47.935Z,7.2
2018-01-01T05:34:49.319Z,7.2
2018-01-01T05:35:50.698Z,7.2
2018-01-01T05:36:52.080Z,7.3
2018-01-01T05:37:53.463Z,7.2
2018-01-01T05:38:54.849Z,7.2
2018-01-01T05:39:56.229Z,7.2
2018-01-01T05:40:57.608Z,7.1
2018-01-01T05:41:58.991Z,7.1
2018-01-01T05:43:00.372Z,7.1
2018-01-01T05:44:01.754Z,7.0
2018-01-01T05:45:03.137Z,7.1
2018-01-01T05:46:04.522Z,7.1
2018-01-01T05:47:05.904Z,7.1
2018-01-01T05:48:07.285Z,7.0
2018-01-01T05:49:08.668Z,7.0
2018-01-01T05:50:10.050Z,7.0
2018-01-01T05:51:11.429Z,6.9
2018-01-01T05:52:12.816Z,7.0
2018-01-01T05:53:14.196Z,7.1
2018-01-01T05:54:15.577Z,7.0
2018-01-01T05:55:16.958Z,7.0
2018-01-01T05:56:18.339Z,7.1
2018-01-01T05:57:19.720Z,7.0
2018-01-01T05:58:21.102Z,7.1
2018-01-01T05:59:22.487Z,7.0
2018-01-01T06:00:23.872Z,7.1
2018-01-01T06:01:25.250Z,7.1
2018-01-01T06:02:26.632Z,7.1
2018-01-01T06:03:28.014Z,7.1
2018-01-01T06:04:29.402Z,7.1
2018-01-01T06:05:30.777Z,7.1
2018-01-01T06:06:32.160Z,7.1
2018-01-01T06:07:33.547Z,7.3
2018-01-01T06:08:34.928Z,7.2
2018-01-01T06:09:36.310Z,7.2
2018-01-01T06:10:37.690Z,7.2
2018-01-01T06:11:39.072Z,7.2
2018-01-01T06:12:40.452Z,7.3
2018-01-01T06:13:41.834Z,7.3
2018-01-01T06:14:43.218Z,7.3
2018-01-01T06:15:44.651Z,7.3
2018-01-01T06:16:46.038Z,7.4
2018-01-01T06:17:47.420Z,7.3
2018-01-01T06:18:48.804Z,7.4
2018-01-01T06:19:50.187Z,7.3
2018-01-01T06:20:51.567Z,7.4
2018-01-01T06:21:52.953Z,7.4
2018-01-01T06:22:54.337Z,7.4
2018-01-01T06:23:55.717Z,7.4
2018-01-01T06:24:57.097Z,7.5
2018-01-01T06:25:58.478Z,7.4
2018-01-01T06:26:59.861Z,7.4
2018-01-01T06:28:01.244Z,7.5
2018-01-01T06:29:02.629Z,7.5
2018-01-01T06:30:04.018Z,7.4
2018-01-01T06:31:05.387Z,7.4
2018-01-01T06:32:06.773Z,7.5
2018-01-01T06:33:08.154Z,7.4
2018-01-01T06:34:09.533Z,7.4
2018-01-01T06:35:10.918Z,7.4
2018-01-01T06:36:12.301Z,7.5
2018-01-01T06:37:13.684Z,7.4
2018-01-01T06:38:15.063Z,7.5
2018-01-01T06:39:16.448Z,7.5
2018-01-01T06:40:17.827Z,7.4
2018-01-01T06:41:19.210Z,7.5
2018-01-01T06:42:20.591Z,7.5
2018-01-01T06:43:21.976Z,7.5
2018-01-01T06:44:23.359Z,7.5
2018-01-01T06:45:24.743Z,7.4
2018-01-01T06:46:26.127Z,7.5
2018-01-01T06:47:27.504Z,7.4
2018-01-01T06:48:28.889Z,7.5
2018-01-01T06:49:30.271Z,7.5
2018-01-01T06:50:31.655Z,7.5
2018-01-01T06:51:33.035Z,7.4
2018-01-01T06:52:34.418Z,7.4
2018-01-01T06:53:35.797Z,7.4
2018-01-01T06:54:37.179Z,7.4
2018-01-01T06:55:38.562Z,7.5
2018-01-01T06:56:39.946Z,7.4
2018-01-01T06:57:41.330Z,7.4
2018-01-01T06:58:42.714Z,7.5
2018-01-01T06:59:44.092Z,7.4
2018-01-01T07:00:45.473Z,7.4
2018-01-01T07:01:46.854Z,7.4
2018-01-01T07:02:48.236Z,7.4
2018-01-01T07:03:49.619Z,7.5
2018-01-01T07:04:51.002Z,7.4
2018-01-01T07:05:52.382Z,7.4
2018-01-01T07:06:53.765Z,7.5
2018-01-01T07:07:55.184Z,7.5
2018-01-01T07:08:56.570Z,7.4
2018-01-01T07:09:57.956Z,7.3
2018-01-01T07:10:59.337Z,7.4
2018-01-01T07:12:00.723Z,7.3
2018-01-01T07:13:02.106Z,7.3
2018-01-01T07:14:03.486Z,7.4
2018-01-01T07:15:04.874Z,7.3
2018-01-01T07:16:06.249Z,7.3
2018-01-01T07:17:07.635Z,7.4
2018-01-01T07:18:09.017Z,7.3
2018-01-01T07:19:10.401Z,7.4
2018-01-01T07:20:11.787Z,7.4
2018-01-01T07:21:13.166Z,7.4
2018-01-01T07:22:14.551Z,7.4
2018-01-01T07:23:15.937Z,7.3
2018-01-01T07:24:17.319Z,7.3
2018-01-01T07:25:18.705Z,7.4
2018-01-01T07:26:20.089Z,7.3
2018-01-01T07:27:21.470Z,7.4
2018-01-01T07:28:22.855Z,7.3
2018-01-01T07:29:24.237Z,7.4
2018-01-01T07:30:25.621Z,7.3
2018-01-01T07:31:27.004Z,7.4
2018-01-01T07:32:28.392Z,7.4
2018-01-01T07:33:29.784Z,7.4
2018-01-01T07:34:31.169Z,7.5
2018-01-01T07:35:32.548Z,7.5
2018-01-01T07:36:33.932Z,7.5
2018-01-01T07:37:35.316Z,7.4
2018-01-01T07:38:36.699Z,7.4
2018-01-01T07:39:38.080Z,7.4
2018-01-01T07:40:39.471Z,7.6
2018-01-01T07:41:40.857Z,7.6
2018-01-01T07:42:42.242Z,7.6
2018-01-01T07:43:43.627Z,7.6
2018-01-01T07:44:45.015Z,7.6
2018-01-01T07:45:46.398Z,7.6
2018-01-01T07:46:47.785Z,7.5
2018-01-01T07:47:49.174Z,7.5
2018-01-01T07:48:50.551Z,7.6
2018-01-01T07:49:51.935Z,7.5
2018-01-01T07:50:53.320Z,7.5
2018-01-01T07:51:54.709Z,7.4
2018-01-01T07:52:56.096Z,7.4
2018-01-01T07:53:57.485Z,7.5
2018-01-01T07:54:58.869Z,7.4
2018-01-01T07:56:00.252Z,7.3
2018-01-01T07:57:01.640Z,7.3
2018-01-01T07:58:03.024Z,7.4
2018-01-01T07:59:04.404Z,7.2
2018-01-01T08:00:05.860Z,7.2
2018-01-01T08:01:07.253Z,7.2
2018-01-01T08:02:08.643Z,7.1
2018-01-01T08:03:10.026Z,7.1
2018-01-01T08:04:11.407Z,7.0
2018-01-01T08:05:12.795Z,7.0
2018-01-01T08:06:14.180Z,7.0
2018-01-01T08:07:15.566Z,6.9
2018-01-01T08:08:16.954Z,6.9
2018-01-01T08:09:18.340Z,6.9
2018-01-01T08:10:19.722Z,6.9
2018-01-01T08:11:21.103Z,6.8
2018-01-01T08:12:22.487Z,6.9
2018-01-01T08:13:23.875Z,6.8
2018-01-01T08:14:25.262Z,6.9
2018-01-01T08:15:26.649Z,6.8
2018-01-01T08:16:28.036Z,6.8
2018-01-01T08:17:29.422Z,6.7
2018-01-01T08:18:30.812Z,6.8
2018-01-01T08:19:32.195Z,6.8
2018-01-01T08:20:33.580Z,6.8
2018-01-01T08:21:34.963Z,6.7
2018-01-01T08:22:36.351Z,6.8
2018-01-01T08:23:37.733Z,6.8
2018-01-01T08:24:39.120Z,6.7
2018-01-01T08:25:40.502Z,6.8
2018-01-01T08:26:41.889Z,6.9
2018-01-01T08:27:43.274Z,6.9
2018-01-01T08:28:44.710Z,6.9
2018-01-01T08:29:46.048Z,6.9
2018-01-01T08:30:47.435Z,6.8
2018-01-01T08:31:48.819Z,6.9
2018-01-01T08:32:50.208Z,6.8
2018-01-01T08:33:51.590Z,6.8
2018-01-01T08:34:52.975Z,6.8
2018-01-01T08:35:54.363Z,6.8
2018-01-01T08:36:55.749Z,6.8
2018-01-01T08:37:57.135Z,6.9
2018-01-01T08:38:58.518Z,6.9
2018-01-01T08:39:59.902Z,6.9
2018-01-01T08:41:01.285Z,6.8
2018-01-01T08:42:02.670Z,6.8
2018-01-01T08:43:04.054Z,6.7
2018-01-01T08:44:05.443Z,6.8
2018-01-01T08:45:06.829Z,6.8
2018-01-01T08:46:08.214Z,6.7
2018-01-01T08:47:09.599Z,6.7
2018-01-01T08:48:10.986Z,6.7
2018-01-01T08:49:12.372Z,6.7
2018-01-01T08:50:13.756Z,6.7
2018-01-01T08:51:15.154Z,6.6
2018-01-01T08:52:16.568Z,6.6
2018-01-01T08:53:17.951Z,6.5
2018-01-01T08:54:19.334Z,6.6
2018-01-01T08:55:20.720Z,6.6
2018-01-01T08:56:22.103Z,6.6
2018-01-01T08:57:23.493Z,6.6
2018-01-01T08:58:24.881Z,6.6
2018-01-01T08:59:26.320Z,6.6
2018-01-01T09:00:27.685Z,6.6
2018-01-01T09:01:29.041Z,6.7
2018-01-01T09:02:30.427Z,6.6
2018-01-01T09:03:31.812Z,6.6
2018-01-01T09:04:33.199Z,6.6
2018-01-01T09:05:34.589Z,6.6
2018-01-01T09:06:35.979Z,6.7
2018-01-01T09:07:37.364Z,6.7
2018-01-01T09:08:38.751Z,6.7
2018-01-01T09:09:40.134Z,6.6
2018-01-01T09:10:41.522Z,6.7
2018-01-01T09:11:42.909Z,6.7
2018-01-01T09:12:44.296Z,6.8
2018-01-01T09:13:45.687Z,6.9
2018-01-01T09:14:47.072Z,6.8
2018-01-01T09:15:48.457Z,6.9
2018-01-01T09:16:49.846Z,7.0
2018-01-01T09:17:51.234Z,7.0
2018-01-01T09:18:52.623Z,7.1
2018-01-01T09:19:54.014Z,7.1
2018-01-01T09:20:55.403Z,7.2
2018-01-01T09:21:56.789Z,7.2
2018-01-01T09:22:58.173Z,7.3
2018-01-01T09:23:59.561Z,7.2
2018-01-01T09:25:00.950Z,7.3
2018-01-01T09:26:02.333Z,7.5
2018-01-01T09:27:03.722Z,7.5
2018-01-01T09:28:05.111Z,7.5
2018-01-01T09:29:06.495Z,7.5
2018-01-01T09:30:07.882Z,7.6
2018-01-01T09:31:09.267Z,7.6
2018-01-01T09:32:10.656Z,7.7
2018-01-01T09:33:12.044Z,7.8
2018-01-01T09:34:13.432Z,7.9
2018-01-01T09:35:14.825Z,7.8
2018-01-01T09:36:16.207Z,7.9
2018-01-01T09:37:17.606Z,7.9
2018-01-01T09:38:18.994Z,7.8
2018-01-01T09:39:20.381Z,7.8
2018-01-01T09:40:21.769Z,8.0
2018-01-01T09:41:23.158Z,8.0
2018-01-01T09:42:24.548Z,7.9
2018-01-01T09:43:26.003Z,8.1
2018-01-01T09:44:27.393Z,8.1
2018-01-01T09:45:28.780Z,8.1
2018-01-01T09:46:30.168Z,8.0
2018-01-01T09:47:31.554Z,8.1
2018-01-01T09:48:32.942Z,8.2
2018-01-01T09:49:34.334Z,8.2
2018-01-01T09:50:35.721Z,8.3
2018-01-01T09:51:37.106Z,8.2
2018-01-01T09:52:38.494Z,8.2
2018-01-01T09:53:39.885Z,8.3
2018-01-01T09:54:41.273Z,8.3
2018-01-01T09:55:42.659Z,8.4
2018-01-01T09:56:44.049Z,8.3
2018-01-01T09:57:45.435Z,8.4
2018-01-01T09:58:46.824Z,8.4
2018-01-01T09:59:48.210Z,8.3
2018-01-01T10:00:49.599Z,8.4
2018-01-01T10:01:50.988Z,8.5
2018-01-01T10:02:52.378Z,8.4
2018-01-01T10:03:53.769Z,8.4
2018-01-01T10:04:55.154Z,8.5
2018-01-01T10:05:56.541Z,8.4
2018-01-01T10:06:57.930Z,8.5
2018-01-01T10:07:59.316Z,8.5
2018-01-01T10:09:00.710Z,8.6
2018-01-01T10:10:02.100Z,8.5
2018-01-01T10:11:03.489Z,8.6
2018-01-01T10:12:04.878Z,8.6
2018-01-01T10:13:06.262Z,8.6
2018-01-01T10:14:07.651Z,8.7
2018-01-01T10:15:09.053Z,8.6
2018-01-01T10:16:10.443Z,8.7
2018-01-01T10:17:11.832Z,8.7
2018-01-01T10:18:13.223Z,8.8
2018-01-01T10:19:14.610Z,8.9
2018-01-01T10:20:15.996Z,9.0
2018-01-01T10:21:17.386Z,8.9
2018-01-01T10:22:18.773Z,8.8
2018-01-01T10:23:20.172Z,8.9
2018-01-01T10:24:21.555Z,9.0
2018-01-01T10:25:22.950Z,9.1
2018-01-01T10:26:24.338Z,8.9
2018-01-01T10:27:25.722Z,9.1
2018-01-01T10:28:27.111Z,9.0
2018-01-01T10:29:28.499Z,8.9
2018-01-01T10:30:29.890Z,9.1
2018-01-01T10:31:31.280Z,9.2
2018-01-01T10:32:32.671Z,9.2
2018-01-01T10:33:34.061Z,9.2
2018-01-01T10:34:35.510Z,9.2
2018-01-01T10:35:36.926Z,9.3
2018-01-01T10:36:38.313Z,9.3
2018-01-01T10:37:39.706Z,9.3
2018-01-01T10:38:41.113Z,9.3
2018-01-01T10:39:42.501Z,9.4
2018-01-01T10:40:43.891Z,9.5
2018-01-01T10:41:45.291Z,9.6
2018-01-01T10:42:46.681Z,9.7
2018-01-01T10:43:48.069Z,9.6
2018-01-01T10:44:49.459Z,9.6
2018-01-01T10:45:50.848Z,9.6
2018-01-01T10:46:52.240Z,9.6
2018-01-01T10:47:53.629Z,9.7
2018-01-01T10:48:55.018Z,9.7
2018-01-01T10:49:56.410Z,9.7
2018-01-01T10:50:57.798Z,9.7
2018-01-01T10:51:59.189Z,9.7
2018-01-01T10:53:00.578Z,9.8
2018-01-01T10:54:01.966Z,9.7
2018-01-01T10:55:03.354Z,9.8
2018-01-01T10:56:04.742Z,9.9
2018-01-01T10:57:06.133Z,10.0
2018-01-01T10:58:07.523Z,10.0
2018-01-01T10:59:08.913Z,9.9
2018-01-01T11:00:10.308Z,9.9
2018-01-01T11:01:11.699Z,9.8
2018-01-01T11:02:13.091Z,10.0
2018-01-01T11:03:14.480Z,10.0
2018-01-01T11:04:15.869Z,10.1
2018-01-01T11:05:17.262Z,10.2
2018-01-01T11:06:18.658Z,10.2
2018-01-01T11:07:20.044Z,10.1
2018-01-01T11:08:21.433Z,10.3
2018-01-01T11:09:22.824Z,10.3
2018-01-01T11:10:24.212Z,10.4
2018-01-01T11:11:25.602Z,10.5
2018-01-01T11:12:26.995Z,10.6
2018-01-01T11:13:28.388Z,10.7
2018-01-01T11:14:29.780Z,10.5
2018-01-01T11:15:31.173Z,10.5
2018-01-01T11:16:32.564Z,10.5
2018-01-01T11:17:33.963Z,10.5
2018-01-01T11:18:35.346Z,10.6
2018-01-01T11:19:36.740Z,10.8
2018-01-01T11:20:38.131Z,10.6
2018-01-01T11:21:39.525Z,10.7
2018-01-01T11:22:40.915Z,10.6
2018-01-01T11:23:42.307Z,10.6
2018-01-01T11:24:43.700Z,10.8
2018-01-01T11:25:45.124Z,11.0
2018-01-01T11:26:46.513Z,11.0
2018-01-01T11:27:47.906Z,10.9
2018-01-01T11:28:49.297Z,10.9
2018-01-01T11:29:50.693Z,11.1
2018-01-01T11:30:52.083Z,11.0
2018-01-01T11:31:53.473Z,11.1
2018-01-01T11:32:54.865Z,11.0
2018-01-01T11:33:56.255Z,10.9
2018-01-01T11:34:57.648Z,10.8
2018-01-01T11:35:59.041Z,10.9
2018-01-01T11:37:00.434Z,10.9
2018-01-01T11:38:01.828Z,10.9
2018-01-01T11:39:03.219Z,11.0
2018-01-01T11:40:04.611Z,10.8
2018-01-01T11:41:06.003Z,10.8
2018-01-01T11:42:07.418Z,10.9
2018-01-01T11:43:08.788Z,11.0
2018-01-01T11:44:10.181Z,10.9
2018-01-01T11:45:11.572Z,10.8
2018-01-01T11:46:12.961Z,10.9
2018-01-01T11:47:14.356Z,11.2
2018-01-01T11:48:15.747Z,11.1
2018-01-01T11:49:17.146Z,11.1
2018-01-01T11:50:18.548Z,11.1
2018-01-01T11:51:19.946Z,11.1
2018-01-01T11:52:21.335Z,11.0
2018-01-01T11:53:22.721Z,11.1
2018-01-01T11:54:24.112Z,10.9
2018-01-01T11:55:25.503Z,10.8
2018-01-01T11:56:26.896Z,10.8
2018-01-01T11:57:28.290Z,10.5
2018-01-01T11:58:29.685Z,10.5
2018-01-01T11:59:31.074Z,10.5
2018-01-01T12:00:32.466Z,10.4
2018-01-01T12:01:33.857Z,10.3
2018-01-01T12:02:35.247Z,10.4
2018-01-01T12:03:36.640Z,10.5
2018-01-01T12:04:38.031Z,10.4
2018-01-01T12:05:39.426Z,10.3
2018-01-01T12:06:40.814Z,10.3
2018-01-01T12:07:42.210Z,10.1
2018-01-01T12:08:43.597Z,9.9
2018-01-01T12:09:44.987Z,10.0
2018-01-01T12:10:46.372Z,9.9
2018-01-01T12:11:47.761Z,9.9
2018-01-01T12:12:49.153Z,9.9
2018-01-01T12:13:50.544Z,9.7
2018-01-01T12:14:51.923Z,9.8
2018-01-01T12:15:53.323Z,9.8
2018-01-01T12:16:54.720Z,9.7
2018-01-01T12:17:56.113Z,9.7
2018-01-01T12:18:57.504Z,9.6
2018-01-01T12:19:58.894Z,9.5
2018-01-01T12:21:00.283Z,9.6
2018-01-01T12:22:01.674Z,9.6
2018-01-01T12:23:03.063Z,9.6
2018-01-01T12:24:04.451Z,9.5
2018-01-01T12:25:05.839Z,9.6
2018-01-01T12:26:07.229Z,9.6
2018-01-01T12:27:08.624Z,9.5
2018-01-01T12:28:10.009Z,9.5
2018-01-01T12:29:11.392Z,9.5
2018-01-01T12:30:12.782Z,9.5
2018-01-01T12:31:14.170Z,9.4
2018-01-01T12:32:15.561Z,9.5
2018-01-01T12:33:16.952Z,9.5
2018-01-01T12:34:18.341Z,9.5
2018-01-01T12:35:19.730Z,9.5
2018-01-01T12:36:21.118Z,9.4
2018-01-01T12:37:22.505Z,9.4
2018-01-01T12:38:23.897Z,9.4
2018-01-01T12:39:25.286Z,9.4
2018-01-01T12:40:26.676Z,9.4
2018-01-01T12:41:28.067Z,9.5
2018-01-01T12:42:29.455Z,9.4
2018-01-01T12:43:30.839Z,9.4
2018-01-01T12:44:32.229Z,9.3
2018-01-01T12:45:33.617Z,9.4
2018-01-01T12:46:35.007Z,9.4
2018-01-01T12:47:36.401Z,9.4
2018-01-01T12:48:37.786Z,9.5
2018-01-01T12:49:39.170Z,9.4
2018-01-01T12:50:40.560Z,9.5
2018-01-01T12:51:41.948Z,9.4
2018-01-01T12:52:43.336Z,9.6
2018-01-01T12:53:44.735Z,9.5
2018-01-01T12:54:46.180Z,9.5
2018-01-01T12:55:47.568Z,9.5
2018-01-01T12:56:48.956Z,9.6
2018-01-01T12:57:50.344Z,9.6
2018-01-01T12:58:51.738Z,9.6
2018-01-01T12:59:53.122Z,9.6
2018-01-01T13:00:54.509Z,9.5
2018-01-01T13:01:55.899Z,9.5
2018-01-01T13:02:57.291Z,9.5
2018-01-01T13:03:58.676Z,9.5
2018-01-01T13:05:00.063Z,9.6
2018-01-01T13:06:01.451Z,9.6
2018-01-01T13:07:02.854Z,9.6
2018-01-01T13:08:04.304Z,9.6
2018-01-01T13:09:05.692Z,9.5
2018-01-01T13:10:07.082Z,9.5
2018-01-01T13:11:08.471Z,9.6
2018-01-01T13:12:09.860Z,9.6
2018-01-01T13:13:11.245Z,9.7
2018-01-01T13:14:12.634Z,9.7
2018-01-01T13:15:14.022Z,9.7
2018-01-01T13:16:15.413Z,9.5
2018-01-01T13:17:16.802Z,9.6
2018-01-01T13:18:18.189Z,9.7
2018-01-01T13:19:19.606Z,9.7
2018-01-01T13:20:20.969Z,9.7
2018-01-01T13:21:22.355Z,9.7
2018-01-01T13:22:23.746Z,9.7
2018-01-01T13:23:25.137Z,9.8
2018-01-01T13:24:26.523Z,9.8
2018-01-01T13:25:27.912Z,9.7
2018-01-01T13:26:29.302Z,9.8
2018-01-01T13:27:30.688Z,9.8
2018-01-01T13:28:32.079Z,9.8
2018-01-01T13:29:33.468Z,9.8
2018-01-01T13:30:34.859Z,9.8
2018-01-01T13:31:36.279Z,9.8
2018-01-01T13:32:37.638Z,9.9
2018-01-01T13:33:39.023Z,9.8
2018-01-01T13:34:40.407Z,9.9
2018-01-01T13:35:42.023Z,9.9
2018-01-01T13:36:43.415Z,9.9
2018-01-01T13:37:44.803Z,9.9
2018-01-01T13:38:46.192Z,9.9
2018-01-01T13:39:47.578Z,9.8
2018-01-01T13:40:48.965Z,9.8
2018-01-01T13:41:50.349Z,9.7
2018-01-01T13:42:51.738Z,9.7
2018-01-01T13:43:53.125Z,9.8
2018-01-01T13:44:54.512Z,9.7
2018-01-01T13:45:55.990Z,9.7
2018-01-01T13:46:57.369Z,9.7
2018-01-01T13:47:58.754Z,9.8
2018-01-01T13:49:00.139Z,9.8
2018-01-01T13:50:01.529Z,9.7
2018-01-01T13:51:02.917Z,9.7
2018-01-01T13:52:04.306Z,9.7
2018-01-01T13:53:05.699Z,9.7
2018-01-01T13:54:07.082Z,9.8
2018-01-01T13:55:08.467Z,9.7
2018-01-01T13:56:09.857Z,9.7
2018-01-01T13:57:11.243Z,9.7
2018-01-01T13:58:12.651Z,9.7
2018-01-01T13:59:14.035Z,9.7
2018-01-01T14:00:15.430Z,9.7
2018-01-01T14:01:16.813Z,9.7
2018-01-01T14:02:18.199Z,9.7